Time;durP1;ratioP1;P1;durP2;ratioP2;P2;SDS_P1;SDS_P2;PMS_P1;PMS_P2;Temp;Humidity;BMP_temperature;BMP_pressure;BME280_temperature;BME280_humidity;BME280_pressure;Samples;Min_cycle;Max_cycle;Signal;HPM_P1;HPM_P2
2023/05/03 05:51:42;;;;;;;3.63;1.60;;;;;;;;;;10596828;27;20470;-83
2023/05/03 05:56:43;;;;;;;6.93;3.90;;;;;;;;;;10594979;28;20028;-82
2023/05/03 06:01:45;;;;;;;3.38;1.88;;;;;;;;;;10569512;22;20099;-84
2023/05/03 06:06:48;;;;;;;3.13;1.30;;;;;;;;;;10462785;28;20530;-84
2023/05/03 06:12:38;;;;;;;;;;;;;;;;;;;;;
2023/05/03 06:17:39;;;;;;;8.00;4.00;;;;;;;;;;10377781;28;20038;-83
2023/05/03 06:22:40;;;;;;;;;;;;;;;;;;10458939;28;20090;-83
2023/05/03 06:27:41;;;;;;;4.22;2.40;;;;;;;;;;10456842;28;19958;-83
2023/05/03 06:32:42;;;;;;;;;;;;;;;;;;10458130;28;20025;-83
2023/05/03 06:37:44;;;;;;;4.70;2.50;;;;;;;;;;10468927;28;20359;-83
2023/05/03 06:42:45;;;;;;;5.97;2.70;;;;;;;;;;10495709;28;20088;-83
2023/05/03 06:47:50;;;;;;;4.78;2.65;;;;;;;;;;10478990;28;20033;-83
2023/05/03 06:53:03;;;;;;;6.32;1.70;;;;;;;;;;10461288;28;20029;-83
2023/05/03 06:58:08;;;;;;;4.93;2.15;;;;;;;;;;10461878;28;20184;-85
2023/05/03 07:03:14;;;;;;;3.65;1.77;;;;;;;;;;10436749;28;20029;-83
2023/05/03 07:08:21;;;;;;;4.30;1.48;;;;;;;;;;10463804;28;20044;-84
2023/05/03 07:13:22;;;;;;;2.22;1.00;;;;;;;;;;10442888;28;20089;-84
2023/05/03 07:18:23;;;;;;;4.50;1.67;;;;;;;;;;10431904;28;20093;-84
2023/05/03 07:23:24;;;;;;;5.53;1.80;;;;;;;;;;10429159;28;20057;-83
2023/05/03 07:28:25;;;;;;;4.45;2.17;;;;;;;;;;10428934;28;20107;-83
2023/05/03 07:33:26;;;;;;;8.40;2.70;;;;;;;;;;10428499;28;20156;-84
2023/05/03 07:38:27;;;;;;;5.47;3.05;;;;;;;;;;10427435;28;20142;-83
2023/05/03 07:43:28;;;;;;;6.00;2.70;;;;;;;;;;10424330;28;20176;-83
2023/05/03 07:48:29;;;;;;;5.32;2.65;;;;;;;;;;10423136;28;20029;-83
2023/05/03 07:53:30;;;;;;;7.70;5.32;;;;;;;;;;10437639;28;20103;-83
2023/05/03 07:58:31;;;;;;;5.10;2.40;;;;;;;;;;10425985;28;20033;-82
2023/05/03 08:03:32;;;;;;;5.72;2.50;;;;;;;;;;10426176;28;20124;-82
2023/05/03 08:08:35;;;;;;;5.53;2.97;;;;;;;;;;10425595;28;20448;-84
2023/05/03 08:13:36;;;;;;;3.85;2.40;;;;;;;;;;10424968;28;20057;-83
2023/05/03 08:18:37;;;;;;;3.33;2.08;;;;;;;;;;10426144;28;20053;-83
2023/05/03 08:23:45;;;;;;;4.35;2.38;;;;;;;;;;10426788;28;20180;-84
2023/05/03 08:28:46;;;;;;;4.57;2.45;;;;;;;;;;10431975;28;20029;-83
2023/05/03 08:33:47;;;;;;;5.13;2.53;;;;;;;;;;10431726;28;20131;-83
2023/05/03 08:38:49;;;;;;;3.70;2.17;;;;;;;;;;10433428;28;20116;-82
2023/05/03 08:43:53;;;;;;;3.80;2.00;;;;;;;;;;10429456;28;20032;-83
2023/05/03 08:48:54;;;;;;;4.70;2.60;;;;;;;;;;10429664;28;20025;-83
2023/05/03 08:53:55;;;;;;;5.97;3.75;;;;;;;;;;10430087;28;20064;-83
2023/05/03 08:59:03;;;;;;;6.25;4.72;;;;;;;;;;10432872;28;20036;-84
2023/05/03 09:04:05;;;;;;;5.50;2.90;;;;;;;;;;10428542;28;20075;-83
2023/05/03 09:09:07;;;;;;;5.35;2.17;;;;;;;;;;10431480;28;20033;-83
2023/05/03 09:14:12;;;;;;;3.97;2.40;;;;;;;;;;10427557;28;20024;-83
2023/05/03 09:19:14;;;;;;;7.15;3.00;;;;;;;;;;10427764;28;20093;-83
2023/05/03 09:24:17;;;;;;;4.03;2.30;;;;;;;;;;10427063;28;20087;-84
2023/05/03 09:29:29;;;;;;;5.55;2.38;;;;;;;;;;10427701;28;20553;-83
2023/05/03 09:34:30;;;;;;;3.80;1.90;;;;;;;;;;10426127;28;20480;-84
2023/05/03 09:39:32;;;;;;;4.18;2.45;;;;;;;;;;10428213;28;20025;-84
2023/05/03 09:44:40;;;;;;;4.55;3.20;;;;;;;;;;10427882;28;20486;-84
2023/05/03 09:49:41;;;;;;;2.85;2.30;;;;;;;;;;10428225;28;20025;-84
2023/05/03 09:54:43;;;;;;;5.57;2.50;;;;;;;;;;10426454;28;20029;-84
2023/05/03 09:59:45;;;;;;;5.22;2.40;;;;;;;;;;10428314;28;20032;-84
2023/05/03 10:04:52;;;;;;;3.28;2.08;;;;;;;;;;10425487;28;20395;-86
2023/05/03 10:09:56;;;;;;;6.68;3.03;;;;;;;;;;10427569;28;20022;-83
2023/05/03 10:14:59;;;;;;;4.63;2.33;;;;;;;;;;10425628;28;20060;-84
2023/05/03 10:20:08;;;;;;;5.60;2.65;;;;;;;;;;10429455;28;20094;-83
2023/05/03 10:25:10;;;;;;;3.60;2.63;;;;;;;;;;10431111;28;20033;-83
2023/05/03 10:30:32;;;;;;;13.68;9.38;;;;;;;;;;10438605;28;20029;-83
2023/05/03 10:35:33;;;;;;;9.20;3.63;;;;;;;;;;10444023;28;20055;-83
2023/05/03 10:40:42;;;;;;;4.03;2.13;;;;;;;;;;10443441;28;20021;-81
2023/05/03 10:45:43;;;;;;;3.17;2.22;;;;;;;;;;10461415;28;20041;-83
2023/05/03 10:50:44;;;;;;;5.05;2.92;;;;;;;;;;10444425;28;20171;-84
2023/05/03 10:56:07;;;;;;;5.35;3.50;;;;;;;;;;10431528;28;20030;-83
2023/05/03 11:01:09;;;;;;;3.42;2.35;;;;;;;;;;10431714;28;20057;-83
2023/05/03 11:06:26;;;;;;;5.00;3.38;;;;;;;;;;10429268;28;20029;-83
2023/05/03 11:11:27;;;;;;;6.20;3.65;;;;;;;;;;10432673;28;20162;-85
2023/05/03 11:16:28;;;;;;;5.05;3.20;;;;;;;;;;10436485;28;20033;-84
2023/05/03 11:21:30;;;;;;;4.82;3.30;;;;;;;;;;10430317;28;20442;-83
2023/05/03 11:26:41;;;;;;;3.25;2.45;;;;;;;;;;10432880;28;20072;-84
2023/05/03 11:31:42;;;;;;;6.35;3.90;;;;;;;;;;10429609;28;20029;-83
2023/05/03 11:36:43;;;;;;;6.47;4.25;;;;;;;;;;10427429;28;20021;-83
2023/05/03 11:42:00;;;;;;;4.25;3.40;;;;;;;;;;10434580;28;20088;-82
2023/05/03 11:47:01;;;;;;;5.85;2.50;;;;;;;;;;10432218;28;20041;-83
2023/05/03 11:52:02;;;;;;;5.65;3.75;;;;;;;;;;10434252;28;20464;-84
2023/05/03 11:57:11;;;;;;;5.18;2.65;;;;;;;;;;10433266;28;20030;-83
2023/05/03 12:02:13;;;;;;;6.28;3.28;;;;;;;;;;10439093;22;20458;-79
2023/05/03 12:07:14;;;;;;;6.80;4.53;;;;;;;;;;10390306;28;20037;-79
2023/05/03 12:12:19;;;;;;;5.50;2.88;;;;;;;;;;10382664;28;20088;-79
2023/05/03 12:17:34;;;;;;;4.55;3.67;;;;;;;;;;10383792;28;20129;-80
2023/05/03 12:22:35;;;;;;;5.30;3.30;;;;;;;;;;10383322;28;20471;-79
2023/05/03 12:27:36;;;;;;;5.72;3.78;;;;;;;;;;10385128;28;20401;-79
2023/05/03 12:32:37;;;;;;;4.28;2.60;;;;;;;;;;10383369;28;20065;-80
2023/05/03 12:37:38;;;;;;;8.10;3.08;;;;;;;;;;10383530;28;20034;-79
2023/05/03 12:42:40;;;;;;;7.15;4.80;;;;;;;;;;10384056;28;20030;-79
2023/05/03 12:47:41;;;;;;;5.00;2.28;;;;;;;;;;10383977;28;20033;-79
2023/05/03 12:52:42;;;;;;;4.93;2.63;;;;;;;;;;10382429;28;20026;-79
2023/05/03 12:57:43;;;;;;;4.40;3.03;;;;;;;;;;10380469;28;20099;-80
2023/05/03 13:02:44;;;;;;;5.25;3.22;;;;;;;;;;10381630;28;20452;-79
2023/05/03 13:07:47;;;;;;;7.30;4.15;;;;;;;;;;10392802;28;20034;-79
2023/05/03 13:12:48;;;;;;;7.32;4.20;;;;;;;;;;10386423;28;20030;-80
2023/05/03 13:17:49;;;;;;;5.85;4.63;;;;;;;;;;10384145;28;20061;-80
2023/05/03 13:22:50;;;;;;;4.93;3.70;;;;;;;;;;10386022;28;20026;-82
2023/05/03 13:27:52;;;;;;;5.65;3.90;;;;;;;;;;10385504;28;20022;-80
2023/05/03 13:32:53;;;;;;;6.25;3.25;;;;;;;;;;10383906;28;20026;-80
2023/05/03 13:37:54;;;;;;;6.15;4.50;;;;;;;;;;10385665;28;20109;-79
2023/05/03 13:42:55;;;;;;;6.35;5.72;;;;;;;;;;10387318;28;20035;-79
2023/05/03 13:47:56;;;;;;;4.68;3.47;;;;;;;;;;10380058;28;20173;-79
2023/05/03 13:52:57;;;;;;;7.45;4.32;;;;;;;;;;10379723;28;20520;-79
2023/05/03 13:57:58;;;;;;;6.60;3.10;;;;;;;;;;10380030;28;20029;-79
2023/05/03 14:02:59;;;;;;;5.75;4.70;;;;;;;;;;10382561;28;20030;-79
2023/05/03 14:08:00;;;;;;;5.10;3.83;;;;;;;;;;10381871;28;20097;-79
2023/05/03 14:13:01;;;;;;;6.68;4.90;;;;;;;;;;10395285;28;20026;-79
2023/05/03 14:18:02;;;;;;;6.10;4.72;;;;;;;;;;10387459;28;20028;-80
2023/05/03 14:23:03;;;;;;;6.88;4.47;;;;;;;;;;10388634;28;20079;-80
2023/05/03 14:28:04;;;;;;;6.28;4.65;;;;;;;;;;10390933;28;20122;-81
2023/05/03 14:33:06;;;;;;;5.75;4.82;;;;;;;;;;10391110;28;20029;-81
2023/05/03 14:38:07;;;;;;;6.97;3.80;;;;;;;;;;10390333;28;20053;-80
2023/05/03 14:43:09;;;;;;;7.45;4.43;;;;;;;;;;10393588;28;20102;-79
2023/05/03 14:48:11;;;;;;;4.60;3.58;;;;;;;;;;10388863;28;20117;-80
2023/05/03 14:53:12;;;;;;;11.10;7.72;;;;;;;;;;10386430;28;20033;-80
2023/05/03 14:58:13;;;;;;;8.35;5.00;;;;;;;;;;10387564;28;20030;-79
2023/05/03 15:03:14;;;;;;;5.75;4.43;;;;;;;;;;10387923;28;20042;-78
2023/05/03 15:08:16;;;;;;;6.13;4.25;;;;;;;;;;10390914;28;20500;-79
2023/05/03 15:13:17;;;;;;;7.45;4.45;;;;;;;;;;10397260;28;20021;-78
2023/05/03 15:18:19;;;;;;;4.90;2.97;;;;;;;;;;10393941;28;20094;-79
2023/05/03 15:23:20;;;;;;;8.07;3.90;;;;;;;;;;10383515;28;20392;-79
2023/05/03 15:28:21;;;;;;;11.05;5.03;;;;;;;;;;10388643;28;20033;-79
2023/05/03 15:33:22;;;;;;;7.22;3.70;;;;;;;;;;10383635;28;20057;-79
2023/05/03 15:38:23;;;;;;;6.00;4.13;;;;;;;;;;10386024;28;20033;-79
2023/05/03 15:43:24;;;;;;;5.43;4.30;;;;;;;;;;10382916;28;20025;-79
2023/05/03 15:48:25;;;;;;;6.47;4.28;;;;;;;;;;10398928;28;20055;-80
2023/05/03 15:53:26;;;;;;;6.55;3.97;;;;;;;;;;10391367;28;20104;-80
2023/05/03 15:58:29;;;;;;;4.43;3.17;;;;;;;;;;10386691;28;20026;-80
2023/05/03 16:03:30;;;;;;;5.05;3.45;;;;;;;;;;10383240;28;20037;-79
2023/05/03 16:08:31;;;;;;;7.65;5.60;;;;;;;;;;10384713;28;20444;-80
2023/05/03 16:13:32;;;;;;;4.88;3.97;;;;;;;;;;10386075;28;20022;-79
2023/05/03 16:18:33;;;;;;;4.93;3.58;;;;;;;;;;10384619;28;20030;-80
2023/05/03 16:23:34;;;;;;;3.42;2.20;;;;;;;;;;10393714;28;20041;-82
2023/05/03 16:28:36;;;;;;;8.77;5.57;;;;;;;;;;10388045;28;20026;-80
2023/05/03 16:33:37;;;;;;;9.77;7.45;;;;;;;;;;10381178;28;20026;-80
2023/05/03 16:38:38;;;;;;;6.30;3.92;;;;;;;;;;10381726;28;20559;-80
2023/05/03 16:43:39;;;;;;;4.78;3.17;;;;;;;;;;10383506;28;20105;-80
2023/05/03 16:48:41;;;;;;;9.20;5.28;;;;;;;;;;10379214;28;20034;-80
2023/05/03 16:53:42;;;;;;;7.18;3.78;;;;;;;;;;10378443;28;20364;-80
2023/05/03 16:58:43;;;;;;;6.18;3.35;;;;;;;;;;10377823;28;20408;-80
2023/05/03 17:03:44;;;;;;;7.15;5.43;;;;;;;;;;10378769;28;20068;-80
2023/05/03 17:08:45;;;;;;;8.25;5.88;;;;;;;;;;10377634;28;20440;-80
2023/05/03 17:13:46;;;;;;;10.70;8.07;;;;;;;;;;10379603;28;20018;-79
2023/05/03 17:18:48;;;;;;;3.65;2.47;;;;;;;;;;10377953;28;20117;-80
2023/05/03 17:23:49;;;;;;;8.00;5.20;;;;;;;;;;10379494;28;20496;-78
2023/05/03 17:28:51;;;;;;;7.10;5.00;;;;;;;;;;10380058;28;20127;-80
2023/05/03 17:33:52;;;;;;;8.65;5.20;;;;;;;;;;10379941;28;20108;-79
2023/05/03 17:38:53;;;;;;;6.60;4.60;;;;;;;;;;10378367;28;20061;-80
2023/05/03 17:43:54;;;;;;;6.68;4.28;;;;;;;;;;10378485;28;20026;-81
2023/05/03 17:48:57;;;;;;;8.50;4.35;;;;;;;;;;10376271;28;20096;-81
2023/05/03 17:53:58;;;;;;;5.65;3.70;;;;;;;;;;10377916;28;20463;-81
2023/05/03 17:58:59;;;;;;;7.70;4.55;;;;;;;;;;10377420;28;20038;-81
2023/05/03 18:04:00;;;;;;;6.80;4.70;;;;;;;;;;10378740;28;20147;-81
2023/05/03 18:09:01;;;;;;;2.97;1.50;;;;;;;;;;10376773;28;20484;-81
2023/05/03 18:14:02;;;;;;;6.82;4.13;;;;;;;;;;10380080;28;20029;-81
2023/05/03 18:19:03;;;;;;;6.65;4.38;;;;;;;;;;10380113;28;20037;-81
2023/05/03 18:24:05;;;;;;;5.70;2.97;;;;;;;;;;10380432;28;20090;-81
2023/05/03 18:29:06;;;;;;;6.70;4.13;;;;;;;;;;10381599;28;20037;-81
2023/05/03 18:34:07;;;;;;;6.00;3.92;;;;;;;;;;10395265;28;20086;-81
2023/05/03 18:39:08;;;;;;;3.03;2.13;;;;;;;;;;10403689;28;20038;-81
2023/05/03 18:44:09;;;;;;;5.60;3.95;;;;;;;;;;10383143;28;20026;-81
2023/05/03 18:49:10;;;;;;;6.20;4.70;;;;;;;;;;10382592;28;20060;-81
2023/05/03 18:54:12;;;;;;;2.45;1.90;;;;;;;;;;10382219;28;20053;-81
2023/05/03 18:59:13;;;;;;;4.80;3.55;;;;;;;;;;10387587;28;20467;-81
2023/05/03 19:04:14;;;;;;;2.97;2.20;;;;;;;;;;10388562;28;20025;-81
2023/05/03 19:09:15;;;;;;;4.35;3.08;;;;;;;;;;10387703;28;20030;-81
2023/05/03 19:14:17;;;;;;;5.72;3.20;;;;;;;;;;10388811;28;20113;-81
